createdAt,value
2022-10-28T00:01:51.926Z,7.2
2022-10-28T00:03:53.728Z,6.2
2022-10-28T00:05:55.589Z,7.8
2022-10-28T00:07:57.492Z,5.8
2022-10-28T00:10:02.505Z,6.7
2022-10-28T00:12:04.384Z,6.6
2022-10-28T00:14:06.286Z,8.6
2022-10-28T00:18:36.667Z,7.3
2022-10-28T00:24:45.492Z,7.1
2022-10-28T00:26:47.357Z,7.4
2022-10-28T00:28:49.250Z,7.2
2022-10-28T00:34:54.873Z,7.4
2022-10-28T00:36:59.901Z,8.2
2022-10-28T00:39:01.797Z,8.4
2022-10-28T00:41:03.688Z,8.9
2022-10-28T00:43:05.561Z,8.8
2022-10-28T00:45:07.437Z,7.1
2022-10-28T00:47:09.339Z,8.1
2022-10-28T00:49:11.202Z,9.5
2022-10-28T00:51:16.257Z,8.7
2022-10-28T00:53:18.134Z,9.2
2022-10-28T00:55:20.002Z,8.5
2022-10-28T00:57:21.918Z,8.9
2022-10-28T00:59:23.780Z,8.1
2022-10-28T01:01:25.794Z,8.3
2022-10-28T01:03:27.560Z,8.7
2022-10-28T01:05:32.620Z,9.5
2022-10-28T01:07:34.528Z,9.3
2022-10-28T01:09:36.416Z,10.2
2022-10-28T01:10:38.930Z,9.4
2022-10-28T01:16:44.573Z,9.3
2022-10-28T01:22:53.731Z,10.1
2022-10-28T01:24:55.293Z,9.8
2022-10-28T01:26:57.183Z,8.7
2022-10-28T01:33:05.987Z,11.4
2022-10-28T01:43:15.437Z,10.4
2022-10-28T01:45:17.354Z,11.7
2022-10-28T01:49:24.252Z,10.1
2022-10-28T01:51:26.096Z,12.7
2022-10-28T01:59:33.668Z,11.7
2022-10-28T02:01:38.985Z,15.9
2022-10-28T02:06:44.998Z,11.4
2022-10-28T02:08:46.894Z,11.7
2022-10-28T02:10:48.811Z,12.3
2022-10-28T02:12:51.118Z,11
2022-10-28T02:14:55.787Z,14.3
2022-10-28T02:16:57.622Z,12.4
2022-10-28T02:18:59.528Z,11.5
2022-10-28T02:25:05.221Z,12.8
2022-10-28T02:27:08.657Z,12.6
2022-10-28T02:29:13.649Z,11.6
2022-10-28T02:31:15.532Z,11.8
2022-10-28T02:33:17.419Z,11.1
2022-10-28T02:35:19.317Z,11.6
2022-10-28T02:37:21.194Z,12.5
2022-10-28T02:39:23.116Z,12.7
2022-10-28T02:41:24.995Z,11.8
2022-10-28T02:43:30.027Z,11.5
2022-10-28T02:45:31.927Z,13
2022-10-28T02:47:33.822Z,11.8
2022-10-28T02:49:35.744Z,10.7
2022-10-28T02:51:37.605Z,10.1
2022-10-28T02:53:39.519Z,10.6
2022-10-28T02:55:41.535Z,10.3
2022-10-28T02:57:46.432Z,11.1
2022-10-28T02:59:48.340Z,11.3
2022-10-28T03:01:50.401Z,10.7
2022-10-28T03:04:54.637Z,10.1
2022-10-28T03:06:56.545Z,10.8
2022-10-28T03:08:58.428Z,10.2
2022-10-28T03:11:03.494Z,10
2022-10-28T03:13:05.383Z,11.5
2022-10-28T03:23:14.863Z,9.3
2022-10-28T03:29:23.696Z,11.1
2022-10-28T03:41:38.214Z,9.2
2022-10-28T03:43:40.110Z,10.5
2022-10-28T03:45:42.208Z,9.8
2022-10-28T03:47:43.912Z,12
2022-10-28T03:49:45.797Z,8.8
2022-10-28T03:51:47.695Z,9.7
2022-10-28T03:53:52.709Z,9.4
2022-10-28T03:55:54.626Z,9.4
2022-10-28T03:57:56.700Z,7.8
2022-10-28T04:00:25.065Z,9.3
2022-10-28T04:02:27.035Z,7.5
2022-10-28T04:04:30.762Z,7.2
2022-10-28T04:06:33.876Z,7.6
2022-10-28T04:08:35.774Z,8
2022-10-28T04:10:37.680Z,7.4
2022-10-28T04:12:39.585Z,7.6
2022-10-28T04:14:41.481Z,7.5
2022-10-28T04:16:43.394Z,7.4
2022-10-28T04:18:45.257Z,6.6
2022-10-28T04:20:50.278Z,6.2
2022-10-28T04:22:56.068Z,7.3
2022-10-28T04:24:54.055Z,6.8
2022-10-28T04:26:55.953Z,6.3
2022-10-28T04:28:57.851Z,7.2
2022-10-28T04:30:59.746Z,6.1
2022-10-28T04:33:01.651Z,5.7
2022-10-28T04:35:06.670Z,6.5
2022-10-28T04:37:08.575Z,5.9
2022-10-28T04:39:10.470Z,6.4
2022-10-28T04:41:12.353Z,5.3
2022-10-28T04:43:14.823Z,4.7
2022-10-28T04:45:16.692Z,4.5
2022-10-28T04:47:18.607Z,5.3
2022-10-28T04:49:23.622Z,4.2
2022-10-28T04:51:25.572Z,4.6
2022-10-28T04:53:27.394Z,5.2
2022-10-28T04:54:29.927Z,3.5
2022-10-28T04:56:31.795Z,5.1
2022-10-28T04:58:33.697Z,4.2
2022-10-28T05:00:35.559Z,5.2
2022-10-28T05:02:45.240Z,5.2
2022-10-28T05:04:42.482Z,5
2022-10-28T05:06:44.384Z,4.2
2022-10-28T05:08:46.291Z,5.3
2022-10-28T05:10:48.155Z,5.3
2022-10-28T05:12:50.035Z,4.9
2022-10-28T05:14:53.205Z,5.5
2022-10-28T05:16:56.965Z,4.6
2022-10-28T05:18:58.855Z,4.3
2022-10-28T05:21:00.747Z,4.3
2022-10-28T05:23:02.614Z,4.7
2022-10-28T05:25:04.499Z,3.8
2022-10-28T05:27:06.372Z,4.8
2022-10-28T05:29:08.262Z,4.6
2022-10-28T05:31:13.298Z,6.6
2022-10-28T05:33:15.190Z,4.6
2022-10-28T05:35:17.085Z,5.2
2022-10-28T05:37:18.972Z,5.5
2022-10-28T05:39:20.843Z,3.8
2022-10-28T05:41:23.363Z,5.1
2022-10-28T05:43:24.629Z,4.6
2022-10-28T05:47:32.587Z,4.7
2022-10-28T05:49:33.411Z,4.8
2022-10-28T05:50:35.938Z,4.2
2022-10-28T05:52:37.837Z,4.1
2022-10-28T05:54:39.736Z,4.3
2022-10-28T05:58:46.661Z,4
2022-10-28T06:00:48.520Z,4
2022-10-28T06:02:50.486Z,4.5
2022-10-28T06:04:52.268Z,3.8
2022-10-28T06:06:54.152Z,5
2022-10-28T06:08:56.061Z,4
2022-10-28T06:10:56.403Z,4.7
2022-10-28T06:13:01.427Z,4.5
2022-10-28T06:15:03.319Z,4.2
2022-10-28T06:17:05.217Z,4.6
2022-10-28T06:19:07.108Z,5
2022-10-28T06:21:08.982Z,4.2
2022-10-28T06:23:10.890Z,4.3
2022-10-28T06:25:12.774Z,4.1
2022-10-28T06:27:17.807Z,4.2
2022-10-28T06:29:19.690Z,4.4
2022-10-28T06:31:21.564Z,4.8
2022-10-28T06:33:23.465Z,4
2022-10-28T06:35:25.352Z,3.9
2022-10-28T06:37:27.223Z,5.1
2022-10-28T06:39:29.110Z,4.4
2022-10-28T06:41:34.133Z,5.5
2022-10-28T06:43:36.017Z,4.5
2022-10-28T06:45:37.908Z,4.4
2022-10-28T06:46:41.946Z,4.6
2022-10-28T06:48:43.833Z,4.5
2022-10-28T06:50:45.697Z,4.4
2022-10-28T06:52:47.597Z,4.3
2022-10-28T06:54:52.656Z,4.2
2022-10-28T06:56:54.537Z,5.1
2022-10-28T06:58:56.415Z,5.4
2022-10-28T07:00:58.311Z,4.7
2022-10-28T07:03:00.743Z,7.1
2022-10-28T07:05:02.112Z,4.3
2022-10-28T07:07:03.994Z,4.4
2022-10-28T07:09:08.999Z,4.6
2022-10-28T07:11:10.883Z,4.8
2022-10-28T07:13:12.761Z,5.4
2022-10-28T07:17:16.512Z,4.6
2022-10-28T07:19:22.482Z,4.8
2022-10-28T07:25:27.207Z,5.6
2022-10-28T07:27:29.086Z,4.4
2022-10-28T07:29:30.959Z,4.8
2022-10-28T07:31:32.835Z,4.1
2022-10-28T07:35:36.588Z,3.7
2022-10-28T07:37:41.614Z,5
2022-10-28T07:39:43.481Z,5.1
2022-10-28T07:44:13.882Z,5.7
2022-10-28T07:46:15.771Z,5.1
2022-10-28T07:48:17.629Z,4.9
2022-10-28T07:50:22.699Z,5.3
2022-10-28T07:52:24.536Z,5.4
2022-10-28T07:54:26.408Z,5.4
2022-10-28T07:56:28.291Z,4.9
2022-10-28T07:58:30.169Z,4.9
2022-10-28T08:00:32.031Z,4
2022-10-28T08:04:38.935Z,5
2022-10-28T08:06:40.840Z,4.5
2022-10-28T08:10:44.547Z,5.5
2022-10-28T08:12:46.396Z,5.4
2022-10-28T08:14:48.265Z,5.2
2022-10-28T08:16:50.125Z,4.6
2022-10-28T08:18:56.659Z,4.3
2022-10-28T08:20:58.553Z,5.2
2022-10-28T08:23:02.852Z,4.7
2022-10-28T08:25:02.289Z,4.2
2022-10-28T08:27:04.154Z,5.9
2022-10-28T08:29:06.024Z,3.7
2022-10-28T08:31:08.878Z,4.2
2022-10-28T08:33:12.889Z,4.7
2022-10-28T08:35:14.748Z,3.5
2022-10-28T08:37:16.721Z,4.3
2022-10-28T08:38:19.135Z,2.9
2022-10-28T08:40:21.040Z,4.1
2022-10-28T08:42:22.866Z,4.8
2022-10-28T08:44:24.738Z,4.7
2022-10-28T08:46:29.723Z,5.1
2022-10-28T08:48:31.587Z,4.3
2022-10-28T08:50:33.437Z,4.7
2022-10-28T08:52:35.322Z,4.2
2022-10-28T08:54:37.146Z,3.9
2022-10-28T08:56:39.004Z,3.9
2022-10-28T08:58:40.848Z,4.7
2022-10-28T09:00:45.846Z,3.9
2022-10-28T09:02:47.706Z,3.3
2022-10-28T09:04:49.560Z,3.5
2022-10-28T09:06:51.399Z,3.5
2022-10-28T09:08:53.232Z,4.7
2022-10-28T09:10:55.060Z,3.9
2022-10-28T09:12:57.081Z,4.2
2022-10-28T09:15:02.042Z,3.6
2022-10-28T09:17:03.735Z,3.4
2022-10-28T09:19:05.540Z,4.2
2022-10-28T09:21:07.370Z,3.4
2022-10-28T09:23:09.188Z,4.4
2022-10-28T09:29:17.832Z,3.7
2022-10-28T09:31:19.630Z,3.1
2022-10-28T09:33:21.481Z,3.4
2022-10-28T09:34:23.958Z,3.7
2022-10-28T09:36:25.763Z,2.8
2022-10-28T09:38:27.590Z,3
2022-10-28T09:40:29.410Z,3.5
2022-10-28T09:42:34.419Z,4.2
2022-10-28T09:44:36.184Z,2.9
2022-10-28T09:46:38.003Z,2.3
2022-10-28T09:48:39.803Z,3.8
2022-10-28T09:50:41.614Z,3
2022-10-28T09:52:43.398Z,4.3
2022-10-28T09:54:45.228Z,3.1
2022-10-28T09:56:50.183Z,4.2
2022-10-28T09:58:51.982Z,3.6
2022-10-28T10:00:53.764Z,4
2022-10-28T10:02:55.692Z,3.1
2022-10-28T10:04:57.360Z,3.3
2022-10-28T10:06:59.145Z,2.7
2022-10-28T10:11:05.913Z,3.6
2022-10-28T10:13:07.703Z,3.7
2022-10-28T10:15:09.499Z,3.4
2022-10-28T10:21:14.884Z,7.2
2022-10-28T10:23:16.680Z,4.3
2022-10-28T10:25:21.620Z,3.3
2022-10-28T10:30:27.703Z,4.2
2022-10-28T10:32:29.456Z,3.1
2022-10-28T10:34:31.253Z,4.3
2022-10-28T10:36:33.057Z,3.7
2022-10-28T10:38:37.991Z,3.7
2022-10-28T10:40:39.766Z,3.2
2022-10-28T10:42:51.715Z,4
2022-10-28T10:44:43.346Z,4
2022-10-28T10:48:46.920Z,3
2022-10-28T10:54:55.456Z,4.5
2022-10-28T10:58:59.015Z,4.2
2022-10-28T11:01:00.788Z,4.6
2022-10-28T11:03:02.654Z,3.5
2022-10-28T11:05:04.346Z,3.4
2022-10-28T11:07:09.317Z,3.6
2022-10-28T11:09:11.184Z,6.3
2022-10-28T11:11:12.856Z,4.5
2022-10-28T11:13:14.629Z,4.3
2022-10-28T11:15:16.421Z,4.1
2022-10-28T11:17:18.238Z,4.6
2022-10-28T11:19:19.977Z,4.4
2022-10-28T11:23:26.696Z,3.6
2022-10-28T11:25:28.461Z,3.8
2022-10-28T11:27:58.805Z,4
2022-10-28T11:29:58.575Z,4.4
2022-10-28T11:32:00.347Z,4.1
2022-10-28T11:34:05.302Z,4
2022-10-28T11:36:07.059Z,4.3
2022-10-28T11:38:08.847Z,3.7
2022-10-28T11:40:10.646Z,3.8
2022-10-28T11:42:12.390Z,4.3
2022-10-28T11:44:14.197Z,6.3
2022-10-28T11:46:15.957Z,4.4
2022-10-28T11:48:20.911Z,2.7
2022-10-28T11:50:22.685Z,3.9
2022-10-28T11:52:24.471Z,5.5
2022-10-28T11:54:26.271Z,4.2
2022-10-28T11:56:28.044Z,4.3
2022-10-28T11:58:29.803Z,3.8
2022-10-28T12:00:31.596Z,4.1
2022-10-28T12:02:36.634Z,4.3
2022-10-28T12:04:38.332Z,3.4
2022-10-28T12:06:40.110Z,4.7
2022-10-28T12:08:41.886Z,3.5
2022-10-28T12:10:43.662Z,4.3
2022-10-28T12:12:48.717Z,3.8
2022-10-28T12:14:47.245Z,4.2
2022-10-28T12:16:52.194Z,3.6
2022-10-28T12:18:54.012Z,4.4
2022-10-28T12:20:55.802Z,3.2
2022-10-28T12:21:59.000Z,3.6
2022-10-28T12:24:00.784Z,6
2022-10-28T12:26:02.567Z,3.6
2022-10-28T12:28:04.370Z,3.4
2022-10-28T12:30:09.300Z,3.9
2022-10-28T12:32:11.071Z,5.2
2022-10-28T12:34:12.847Z,5.1
2022-10-28T12:40:18.153Z,4.7
2022-10-28T12:46:26.639Z,3.3
2022-10-28T12:48:28.397Z,3.4
2022-10-28T12:50:30.163Z,3.4
2022-10-28T12:52:31.949Z,3.3
2022-10-28T12:54:33.697Z,3.6
2022-10-28T12:56:35.547Z,4.3
2022-10-28T12:58:40.408Z,3.9
2022-10-28T13:00:42.162Z,4
2022-10-28T13:02:43.923Z,6.3
2022-10-28T13:06:47.462Z,3.4
2022-10-28T13:08:49.333Z,3.7
2022-10-28T13:10:50.979Z,3.8
2022-10-28T13:14:57.742Z,3.7
2022-10-28T13:16:59.459Z,3.1
2022-10-28T13:18:01.943Z,3.9
2022-10-28T13:20:03.710Z,3.8
2022-10-28T13:22:05.485Z,4.3
2022-10-28T13:24:07.229Z,3.6
2022-10-28T13:26:12.203Z,3.1
2022-10-28T13:28:13.957Z,3.8
2022-10-28T13:30:15.739Z,4.1
2022-10-28T13:32:17.491Z,3.8
2022-10-28T13:34:19.275Z,3.2
2022-10-28T13:36:21.046Z,3.7
2022-10-28T13:38:22.823Z,3.7
2022-10-28T13:40:27.789Z,4.8
2022-10-28T13:42:29.558Z,3.5
2022-10-28T13:44:31.335Z,3.6
2022-10-28T13:50:36.698Z,6.2
2022-10-28T13:52:38.487Z,3.8
2022-10-28T13:54:43.448Z,4
2022-10-28T13:58:46.996Z,4
2022-10-28T14:00:52.074Z,4.3
2022-10-28T14:02:50.660Z,4.3
2022-10-28T14:04:52.365Z,2.8
2022-10-28T14:09:00.667Z,4.6
2022-10-28T14:11:02.393Z,3.6
2022-10-28T14:14:06.651Z,3.5
2022-10-28T14:16:11.626Z,5.3
2022-10-28T14:18:29.673Z,3.6
2022-10-28T14:20:12.051Z,4.4
2022-10-28T14:22:17.040Z,3.7
2022-10-28T14:24:18.801Z,4
2022-10-28T14:26:20.601Z,4.5
2022-10-28T14:28:22.399Z,3.9
2022-10-28T14:30:24.202Z,4.5
2022-10-28T14:32:25.984Z,3.5
2022-10-28T14:34:27.789Z,3.6
2022-10-28T14:36:32.771Z,4.3
2022-10-28T14:38:34.551Z,4.2
2022-10-28T14:40:36.357Z,3.6
2022-10-28T14:42:38.468Z,2.9
2022-10-28T14:44:39.970Z,4.6
2022-10-28T14:46:41.772Z,4.5
2022-10-28T14:48:43.569Z,3.5
2022-10-28T14:50:48.533Z,4.1
2022-10-28T14:52:50.328Z,3.5
2022-10-28T14:54:52.136Z,4.5
2022-10-28T14:56:53.956Z,3.7
2022-10-28T15:00:57.596Z,4.3
2022-10-28T15:02:59.360Z,3.6
2022-10-28T15:05:04.346Z,4
2022-10-28T15:07:06.129Z,4
2022-10-28T15:09:07.931Z,3.2
2022-10-28T15:11:36.346Z,5.5
2022-10-28T15:13:38.170Z,4.6
2022-10-28T15:15:40.151Z,4.7
2022-10-28T15:17:44.953Z,4.1
2022-10-28T15:19:46.754Z,4.1
2022-10-28T15:21:48.544Z,4.5
2022-10-28T15:23:50.375Z,4
2022-10-28T15:25:52.165Z,3
2022-10-28T15:27:54.425Z,3.5
2022-10-28T15:29:55.784Z,3.8
2022-10-28T15:32:00.755Z,4
2022-10-28T15:34:02.587Z,4
2022-10-28T15:36:04.402Z,5.7
2022-10-28T15:38:06.218Z,3.1
2022-10-28T15:40:09.907Z,4.1
2022-10-28T15:42:09.835Z,2.9
2022-10-28T15:44:11.672Z,3.9
2022-10-28T15:50:20.275Z,3.4
2022-10-28T15:52:22.087Z,4.1
2022-10-28T15:54:23.912Z,4.2
2022-10-28T15:56:25.727Z,5
2022-10-28T16:00:32.527Z,4.4
2022-10-28T16:05:38.835Z,4.2
2022-10-28T16:07:40.506Z,3.5
2022-10-28T16:09:42.321Z,4.3
2022-10-28T16:11:44.142Z,5.9
2022-10-28T16:13:49.158Z,5.2
2022-10-28T16:15:50.960Z,3.3
2022-10-28T16:17:53.083Z,3.7
2022-10-28T16:19:54.614Z,4.1
2022-10-28T16:21:56.449Z,4.1
2022-10-28T16:23:58.302Z,3.7
2022-10-28T16:26:00.106Z,3.4
2022-10-28T16:28:05.107Z,3.8
2022-10-28T16:30:07.032Z,4.4
2022-10-28T16:32:08.774Z,4.4
2022-10-28T16:34:10.597Z,3.7
2022-10-28T16:40:37.747Z,4.2
2022-10-28T16:42:21.097Z,7.4
2022-10-28T16:44:22.960Z,6.1
2022-10-28T16:46:24.757Z,4.6
2022-10-28T16:48:26.611Z,3.3
2022-10-28T16:50:28.425Z,3.9
2022-10-28T16:52:30.249Z,4.3
2022-10-28T16:54:32.079Z,4.7
2022-10-28T16:56:37.079Z,5.8
2022-10-28T16:58:38.918Z,3.1
2022-10-28T17:00:40.762Z,4.1
2022-10-28T17:01:43.346Z,4
2022-10-28T17:03:45.081Z,5
2022-10-28T17:05:46.916Z,5.3
2022-10-28T17:07:48.737Z,3.3
2022-10-28T17:09:53.770Z,4.5
2022-10-28T17:11:55.615Z,3.5
2022-10-28T17:13:57.414Z,5
2022-10-28T17:15:59.253Z,5.5
2022-10-28T17:18:01.057Z,4.3
2022-10-28T17:20:03.027Z,6
2022-10-28T17:22:09.133Z,8.1
2022-10-28T17:24:09.721Z,3.8
2022-10-28T17:26:11.563Z,4.3
2022-10-28T17:28:13.396Z,4.8
2022-10-28T17:30:15.304Z,4.1
2022-10-28T17:32:17.068Z,3.9
2022-10-28T17:34:18.902Z,4
2022-10-28T17:36:20.753Z,4.3
2022-10-28T17:38:25.733Z,4
2022-10-28T17:40:27.592Z,4.3
2022-10-28T17:42:29.419Z,4.6
2022-10-28T17:44:31.243Z,3.8
2022-10-28T17:46:33.074Z,3.6
2022-10-28T17:48:34.940Z,4
2022-10-28T17:50:36.757Z,4.4
2022-10-28T17:52:41.764Z,5.2
2022-10-28T17:54:43.599Z,5.1
2022-10-28T17:56:45.444Z,4.5
2022-10-28T17:57:47.931Z,5.9
2022-10-28T17:59:49.762Z,4.2
2022-10-28T18:03:53.462Z,5.1
2022-10-28T18:05:58.468Z,4.8
2022-10-28T18:08:00.303Z,4.9
2022-10-28T18:10:02.199Z,6.4
2022-10-28T18:16:07.701Z,6.2
2022-10-28T18:18:09.548Z,4.4
2022-10-28T18:24:20.556Z,4.5
2022-10-28T18:26:20.095Z,5.2
2022-10-28T18:28:21.971Z,6.1
2022-10-28T18:34:30.717Z,5.9
2022-10-28T18:40:36.214Z,4.6
2022-10-28T18:48:46.854Z,5.6
2022-10-28T18:50:49.357Z,6.3
2022-10-28T18:52:50.487Z,5.2
2022-10-28T18:55:19.015Z,5.8
2022-10-28T18:59:22.693Z,5.5
2022-10-28T19:01:27.880Z,4.7
2022-10-28T19:03:29.556Z,5.8
2022-10-28T19:07:33.195Z,5.9
2022-10-28T19:09:35.076Z,5.9
2022-10-28T19:11:36.937Z,6.1
2022-10-28T19:13:38.806Z,5.8
2022-10-28T19:19:47.530Z,7.7
2022-10-28T19:21:49.369Z,5.7
2022-10-28T19:23:51.246Z,6.6
2022-10-28T19:25:53.101Z,5.7
2022-10-28T19:27:54.968Z,6.6
2022-10-28T19:29:59.991Z,6.4
2022-10-28T19:32:01.840Z,8.7
2022-10-28T19:34:03.698Z,7.6
2022-10-28T19:36:05.570Z,6
2022-10-28T19:38:07.432Z,7.6
2022-10-28T19:40:09.292Z,4.8
2022-10-28T19:42:11.151Z,5.7
2022-10-28T19:44:16.148Z,8.3
2022-10-28T19:46:18.020Z,4.8
2022-10-28T19:48:19.868Z,7
2022-10-28T19:49:25.596Z,4.6
2022-10-28T19:51:24.232Z,7.2
2022-10-28T19:53:26.128Z,7.2
2022-10-28T19:55:27.995Z,7.7
2022-10-28T19:57:33.019Z,7
2022-10-28T19:59:36.418Z,8.6
2022-10-28T20:01:38.396Z,7.5
2022-10-28T20:03:42.704Z,6.3
2022-10-28T20:05:42.001Z,9.5
2022-10-28T20:07:43.841Z,7.1
2022-10-28T20:09:45.857Z,8.8
2022-10-28T20:11:50.751Z,7.2
2022-10-28T20:13:52.651Z,6
2022-10-28T20:15:54.495Z,5.6
2022-10-28T20:17:56.381Z,4.4
2022-10-28T20:19:58.235Z,5
2022-10-28T20:22:00.120Z,5.3
2022-10-28T20:24:01.987Z,5
2022-10-28T20:28:08.904Z,7.3
2022-10-28T20:30:10.781Z,5.7
2022-10-28T20:32:12.669Z,5
2022-10-28T20:34:14.568Z,4.8
2022-10-28T20:36:16.447Z,5.7
2022-10-28T20:38:18.329Z,5.3
2022-10-28T20:40:23.369Z,5
2022-10-28T20:42:25.242Z,4.4
2022-10-28T20:44:27.115Z,3.5
2022-10-28T20:45:29.615Z,5.6
2022-10-28T20:47:31.465Z,5
2022-10-28T20:49:33.366Z,5.5
2022-10-28T20:51:35.257Z,4.1
2022-10-28T20:53:40.255Z,5.4
2022-10-28T20:55:42.155Z,5.1
2022-10-28T20:57:44.013Z,5.2
2022-10-28T20:59:45.885Z,5.9
2022-10-28T21:01:47.996Z,4.9
2022-10-28T21:03:49.708Z,5.5
2022-10-28T21:05:51.552Z,4.7
2022-10-28T21:07:56.987Z,4.6
2022-10-28T21:09:58.440Z,3.7
2022-10-28T21:12:00.324Z,5.9
2022-10-28T21:14:02.193Z,5.7
2022-10-28T21:16:04.068Z,3.7
2022-10-28T21:18:05.957Z,4.7
2022-10-28T21:20:07.859Z,4.6
2022-10-28T21:22:12.882Z,5.7
2022-10-28T21:24:14.766Z,4.2
2022-10-28T21:26:16.639Z,4.7
2022-10-28T21:28:18.534Z,6.2
2022-10-28T21:30:20.501Z,4.5
2022-10-28T21:32:22.304Z,5.6
2022-10-28T21:34:24.171Z,5.1
2022-10-28T21:36:29.219Z,4.7
2022-10-28T21:38:31.101Z,4.4
2022-10-28T21:40:32.967Z,5.1
2022-10-28T21:41:35.496Z,5.3
2022-10-28T21:43:37.368Z,7.4
2022-10-28T21:45:39.246Z,4.4
2022-10-28T21:47:41.127Z,4.5
2022-10-28T21:49:46.154Z,6.8
2022-10-28T21:51:48.029Z,5.6
2022-10-28T21:53:49.946Z,5
2022-10-28T21:55:53.019Z,5
2022-10-28T21:57:54.127Z,4.6
2022-10-28T21:59:55.582Z,4.4
2022-10-28T22:01:57.634Z,4.8
2022-10-28T22:04:02.518Z,6.2
2022-10-28T22:06:04.403Z,3.9
2022-10-28T22:08:06.362Z,4.5
2022-10-28T22:10:08.195Z,3.5
2022-10-28T22:12:10.085Z,3.9
2022-10-28T22:14:11.963Z,5.2
2022-10-28T22:16:13.847Z,4.7
2022-10-28T22:18:18.887Z,4.7
2022-10-28T22:20:20.823Z,4.9
2022-10-28T22:22:22.692Z,4
2022-10-28T22:24:24.571Z,7.1
2022-10-28T22:26:26.479Z,3.1
2022-10-28T22:28:28.384Z,4.8
2022-10-28T22:30:30.265Z,4.1
2022-10-28T22:32:35.284Z,4.1
2022-10-28T22:34:37.174Z,4.5
2022-10-28T22:36:39.059Z,4.5
2022-10-28T22:39:07.660Z,4.8
2022-10-28T22:41:09.530Z,3.7
2022-10-28T22:43:11.426Z,5.7
2022-10-28T22:45:16.452Z,5.3
2022-10-28T22:47:18.350Z,5.4
2022-10-28T22:49:20.238Z,4.1
2022-10-28T22:51:22.118Z,4.7
2022-10-28T22:53:24.010Z,4.5
2022-10-28T22:55:25.894Z,4.3
2022-10-28T22:57:27.802Z,5.6
2022-10-28T22:59:32.839Z,5.6
2022-10-28T23:05:38.496Z,6.2
2022-10-28T23:07:40.410Z,5.5
2022-10-28T23:09:42.317Z,7.9
2022-10-28T23:11:44.202Z,5.7
2022-10-28T23:13:49.279Z,5.2
2022-10-28T23:15:51.149Z,5.1
2022-10-28T23:17:53.265Z,5.7
2022-10-28T23:19:54.940Z,6.9
2022-10-28T23:21:56.845Z,4.6
2022-10-28T23:23:58.730Z,5.4
2022-10-28T23:26:00.641Z,5.5
2022-10-28T23:28:05.663Z,5.4
2022-10-28T23:30:07.600Z,5.8
2022-10-28T23:32:09.501Z,5.3
2022-10-28T23:33:12.021Z,5.9
2022-10-28T23:35:13.923Z,5.7
2022-10-28T23:37:15.808Z,4.6
2022-10-28T23:39:17.719Z,5.3
2022-10-28T23:41:22.743Z,7.6
2022-10-28T23:47:28.450Z,5
2022-10-28T23:49:30.358Z,4.9
2022-10-28T23:51:32.246Z,5.2
2022-10-28T23:53:34.139Z,5.3
2022-10-28T23:55:39.183Z,5
2022-10-28T23:57:41.057Z,5.1
2022-10-28T23:59:42.973Z,5
